Terminal Aerodrome Forecast
Issued by NWS Charleston, WV

Current Version | Previous Version | Graphics & Text | Print | Product List | Glossary On
Versions: 1 2 3 4 5 6 7 8 9 10 11 12 13 14 15 16 17 18 19 20 21 22 23 24 25 26 27
000
FTUS41 KRLX 150200 AAA
TAFCRW
TAF AMD
KCRW 150233Z 1503/1524 16006KT P6SM SCT060 OVC090
     FM150500 17009KT P6SM OVC020
     FM150600 18006KT 5SM -SHRA BR BKN015 OVC020
     FM150800 21007KT 3SM -SHRA BR SCT009 OVC015
     FM151000 22007KT 2SM -SHRA BR OVC009
     FM151300 31012KT 3SM -SHRA OVC003
     FM151700 31012G18KT P6SM OVC015=

USA.gov is the U.S. government's official web portal to all federal, state and local government web resources and services.